Startpagina
METAR-TAF:

METAR-TAF

Vliegvelden :

Longyearbyen, Noorwegen

Luchthaven Svalbard Longyear

breedte: 78-15N, lengte: 015-28E, hoogte: 2 m

Actueel weer

Dit bericht is 24 minuten geleden gemaakt, om 20:50 UTC
Wind 10 kt uit het oosten
Temperatuur 0°C
Vochtigheid 80%
Druk 997 hPa
Zicht 10 km of meer
Gebroken wolken op 1800 ft
lichte sneeuw

METAR: ENSB 162050Z 08010KT 9999 -SN BKN018 M00/M03 Q0997 RMK WIND 1400FT 07011KT

Tijdstip: 22:14 (21:14 UTC)

Verwachting

Verwachting geldig van 16 om 18 UTC tot 17 om 18 UTC
Wind 15 kt uit het oostzuidoosten
Zicht 10 km of meer
Weinig wolken op 2000 ft
Gebroken wolken op 4000 ft
Tijdelijke
van 17 om 06 UTC tot 17 om 18 UTC
Wind 20 kt uit het oostzuidoosten met uitschieters tot 30 kt

TAF: ENSB 1618/1718 11015KT 9999 FEW020 BKN040 TEMPO 1706/1718 11020G30KT

Waarnemingen en weersverwachtingen van meer dan 4000 vliegvelden (METAR en TAF).

De beschikbare stations zijn de gele en rode punten op de kaart.

Ga met uw muis naar het station om de naam te zien.

Klik dan om waarnemingen en weersverwachtingen te zien.

kaart wijzigen: klik op de groene knoppen met een zwart kruis om in te zoomen, op de groene knop met een streepje om uit te zoomen of op de groene pijlen voor aangrenzende kaarten.


METAR-TAF: